Andiamo — WDE2131 — position and weather

sailwx.info

Track history (hours):
 
Tides and Currents Weather Stations Pressure Air Temp Water Temp Dewpoint Dewpoint Depression Visibility Wind Speed Wind Dir Waves Ship Positions

Andiamo

Owner: Briggs, Robert O, Newport Beach, CA. More information available from US FCC via Universal Licensing System.

Last reported at 2018-Apr-01 19:22 UTC. Time now 2018-Apr-22 06:18 UTC.
Position N 20°40' W 105°15'.
Warning: this ship's position is 20 days out of date.

Length 22 m.

Type: Pleasure craft. MMSI: 367320870.

Date/timePositionNaut miles runAvg speedWind from/ knotsBaromVisibWave heightAir tempDewpointWater temp
2018-Apr-01 19:22N 20°40' W 105°15'2 4.9
2018-Apr-01 19:00N 20°39' W 105°17'4 8.7
2018-Apr-01 18:30N 20°41' W 105°21'5 8.9
2018-Apr-01 17:59N 20°42' W 105°26'1 0.1
2018-Mar-31 16:13N 20°44' W 105°25'2 9.6
2018-Mar-31 15:59N 20°44' W 105°23'1 2.3
2018-Mar-31 15:30N 20°45' W 105°22'0 0.0
2018-Mar-31 15:00N 20°45' W 105°22'0 0.0
2018-Mar-31 14:30N 20°45' W 105°22'0 0.0
2018-Mar-31 13:59N 20°45' W 105°22'0 0.0
2018-Mar-31 13:29N 20°45' W 105°22'0 0.0
2018-Mar-31 12:59N 20°45' W 105°22'0 0.0
2018-Mar-31 12:30N 20°45' W 105°22'0 0.0
2018-Mar-31 12:00N 20°45' W 105°22'0 0.0
2018-Mar-31 11:29N 20°45' W 105°22'0 0.0
2018-Mar-31 10:59N 20°45' W 105°22'0 0.0
2018-Mar-31 10:29N 20°45' W 105°22'0 0.0
2018-Mar-31 10:00N 20°45' W 105°22'0 0.0
2018-Mar-31 09:29N 20°45' W 105°22'0 0.0
2018-Mar-31 09:00N 20°45' W 105°22'0 0.0
2018-Mar-31 08:30N 20°45' W 105°22'0 0.0
2018-Mar-31 07:59N 20°45' W 105°22'0 0.0
2018-Mar-31 07:30N 20°45' W 105°22'0 0.0
2018-Mar-31 07:00N 20°45' W 105°22'0 0.0
2018-Mar-31 06:27N 20°45' W 105°22'0 0.0
2018-Mar-31 05:59N 20°45' W 105°22'0 0.0
2018-Mar-31 05:30N 20°45' W 105°22'0 0.0
2018-Mar-31 04:59N 20°45' W 105°22'0 0.0
2018-Mar-31 04:29N 20°45' W 105°22'0 0.0
2018-Mar-31 03:59N 20°45' W 105°22'0 0.0
2018-Mar-31 03:29N 20°45' W 105°22'0 0.0
2018-Mar-31 02:59N 20°45' W 105°22'0 0.0
2018-Mar-31 02:29N 20°45' W 105°22'0 0.0
2018-Mar-31 02:00N 20°45' W 105°22'0 0.0
2018-Mar-31 01:29N 20°45' W 105°22'0 0.0
2018-Mar-31 01:00N 20°45' W 105°22'0 0.0
2018-Mar-31 00:30N 20°45' W 105°22'2 4.3
2018-Mar-31 00:00N 20°43' W 105°21'  
Track history (hours):
 
Tides and Currents Weather Stations Pressure Air Temp Water Temp Dewpoint Dewpoint Depression Visibility Wind Speed Wind Dir Waves Ship Positions

Andiamo

Owner: Briggs, Robert O, Newport Beach, CA. More information available from US FCC via Universal Licensing System.

Last reported at 2018-Apr-01 19:22 UTC. Time now 2018-Apr-22 06:18 UTC.
Position N 20°40' W 105°15'.
Warning: this ship's position is 20 days out of date.

Length 22 m.

Type: Pleasure craft. MMSI: 367320870.

Date/timePositionNaut miles runAvg speedWind from/ knotsBaromVisibWave heightAir tempDewpointWater temp
2018-Apr-01 19:22N 20°40' W 105°15'2 4.9
2018-Apr-01 19:00N 20°39' W 105°17'4 8.7
2018-Apr-01 18:30N 20°41' W 105°21'5 8.9
2018-Apr-01 17:59N 20°42' W 105°26'1 0.1
2018-Mar-31 16:13N 20°44' W 105°25'2 9.6
2018-Mar-31 15:59N 20°44' W 105°23'1 2.3
2018-Mar-31 15:30N 20°45' W 105°22'0 0.0
2018-Mar-31 15:00N 20°45' W 105°22'0 0.0
2018-Mar-31 14:30N 20°45' W 105°22'0 0.0
2018-Mar-31 13:59N 20°45' W 105°22'0 0.0
2018-Mar-31 13:29N 20°45' W 105°22'0 0.0
2018-Mar-31 12:59N 20°45' W 105°22'0 0.0
2018-Mar-31 12:30N 20°45' W 105°22'0 0.0
2018-Mar-31 12:00N 20°45' W 105°22'0 0.0
2018-Mar-31 11:29N 20°45' W 105°22'0 0.0
2018-Mar-31 10:59N 20°45' W 105°22'0 0.0
2018-Mar-31 10:29N 20°45' W 105°22'0 0.0
2018-Mar-31 10:00N 20°45' W 105°22'0 0.0
2018-Mar-31 09:29N 20°45' W 105°22'0 0.0
2018-Mar-31 09:00N 20°45' W 105°22'0 0.0
2018-Mar-31 08:30N 20°45' W 105°22'0 0.0
2018-Mar-31 07:59N 20°45' W 105°22'0 0.0
2018-Mar-31 07:30N 20°45' W 105°22'0 0.0
2018-Mar-31 07:00N 20°45' W 105°22'0 0.0
2018-Mar-31 06:27N 20°45' W 105°22'0 0.0
2018-Mar-31 05:59N 20°45' W 105°22'0 0.0
2018-Mar-31 05:30N 20°45' W 105°22'0 0.0
2018-Mar-31 04:59N 20°45' W 105°22'0 0.0
2018-Mar-31 04:29N 20°45' W 105°22'0 0.0
2018-Mar-31 03:59N 20°45' W 105°22'0 0.0
2018-Mar-31 03:29N 20°45' W 105°22'0 0.0
2018-Mar-31 02:59N 20°45' W 105°22'0 0.0
2018-Mar-31 02:29N 20°45' W 105°22'0 0.0
2018-Mar-31 02:00N 20°45' W 105°22'0 0.0
2018-Mar-31 01:29N 20°45' W 105°22'0 0.0
2018-Mar-31 01:00N 20°45' W 105°22'0 0.0
2018-Mar-31 00:30N 20°45' W 105°22'2 4.3
2018-Mar-31 00:00N 20°43' W 105°21'  

Dump ship's entire track history